Tunica, Louisiana
Current Conditions -  °F | °C
As of 10:35 AM on Monday 26 Jan 2015 (Local Time) from KHZR Reporting Station
Clear Clear  
Wind Chill: 53°   Ceiling: Unl
Heat Index: 53°   Visibility: 10mi
Dew Point: 35°   Wind: 13mph
Humidity: 51%   Direction: 330°NNW
Pressure: 30.19"   Gusts: 17mph
Location:  30.93°N, 91.56°W
Report Text: KHZR 261635Z AUTO 33011G15KT 10SM CLR 11/02 A3019 RMK AO2 T01140016
Loading
Personal Weather Stations






























Interactive Weather Map New forecast layout! Learn more

10-Day Weather Forecast

Advertisements
Track Severe Weather on mobile